sensor_id;sensor_type;location;lat;lon;timestamp;P1;durP1;ratioP1;P2;durP2;ratioP2
21458;SDS011;10891;49.350;19.386;2023-10-13T00:00:22;25.67;;;14.95;;
21458;SDS011;10891;49.350;19.386;2023-10-13T00:02:55;24.58;;;16.15;;
21458;SDS011;10891;49.350;19.386;2023-10-13T00:05:27;31.02;;;19.55;;
21458;SDS011;10891;49.350;19.386;2023-10-13T00:07:55;32.90;;;19.55;;
21458;SDS011;10891;49.350;19.386;2023-10-13T00:10:25;22.27;;;15.50;;
21458;SDS011;10891;49.350;19.386;2023-10-13T00:12:53;31.20;;;17.35;;
21458;SDS011;10891;49.350;19.386;2023-10-13T00:15:30;31.55;;;17.95;;
21458;SDS011;10891;49.350;19.386;2023-10-13T00:18:03;37.92;;;19.42;;
21458;SDS011;10891;49.350;19.386;2023-10-13T00:20:38;34.28;;;18.65;;
21458;SDS011;10891;49.350;19.386;2023-10-13T00:23:06;53.75;;;31.38;;
21458;SDS011;10891;49.350;19.386;2023-10-13T00:25:33;28.20;;;18.58;;
21458;SDS011;10891;49.350;19.386;2023-10-13T00:28:08;34.88;;;18.85;;
21458;SDS011;10891;49.350;19.386;2023-10-13T00:30:36;31.50;;;18.52;;
21458;SDS011;10891;49.350;19.386;2023-10-13T00:33:03;26.15;;;16.35;;
21458;SDS011;10891;49.350;19.386;2023-10-13T00:35:31;25.77;;;16.00;;
21458;SDS011;10891;49.350;19.386;2023-10-13T00:38:03;28.88;;;15.45;;
21458;SDS011;10891;49.350;19.386;2023-10-13T00:40:37;29.38;;;14.93;;
21458;SDS011;10891;49.350;19.386;2023-10-13T00:43:09;28.17;;;13.73;;
21458;SDS011;10891;49.350;19.386;2023-10-13T00:45:57;21.83;;;13.63;;
21458;SDS011;10891;49.350;19.386;2023-10-13T00:48:32;26.40;;;15.52;;
21458;SDS011;10891;49.350;19.386;2023-10-13T00:50:59;24.30;;;14.13;;
21458;SDS011;10891;49.350;19.386;2023-10-13T00:53:33;20.13;;;13.60;;
21458;SDS011;10891;49.350;19.386;2023-10-13T00:56:02;24.58;;;14.70;;
21458;SDS011;10891;49.350;19.386;2023-10-13T00:58:32;23.15;;;13.95;;
21458;SDS011;10891;49.350;19.386;2023-10-13T01:00:59;32.00;;;14.43;;
21458;SDS011;10891;49.350;19.386;2023-10-13T01:03:42;29.02;;;14.70;;
21458;SDS011;10891;49.350;19.386;2023-10-13T01:06:09;25.80;;;14.40;;
21458;SDS011;10891;49.350;19.386;2023-10-13T01:08:38;25.25;;;14.13;;
21458;SDS011;10891;49.350;19.386;2023-10-13T01:11:09;24.30;;;14.70;;
21458;SDS011;10891;49.350;19.386;2023-10-13T01:13:38;22.88;;;13.38;;
21458;SDS011;10891;49.350;19.386;2023-10-13T01:16:06;25.45;;;13.73;;
21458;SDS011;10891;49.350;19.386;2023-10-13T01:18:34;24.98;;;13.90;;
21458;SDS011;10891;49.350;19.386;2023-10-13T01:21:12;28.25;;;13.73;;
21458;SDS011;10891;49.350;19.386;2023-10-13T01:23:42;18.67;;;12.55;;
21458;SDS011;10891;49.350;19.386;2023-10-13T01:26:09;23.70;;;13.38;;
21458;SDS011;10891;49.350;19.386;2023-10-13T01:28:38;20.25;;;12.48;;
21458;SDS011;10891;49.350;19.386;2023-10-13T01:31:10;21.27;;;11.68;;
21458;SDS011;10891;49.350;19.386;2023-10-13T01:33:49;20.23;;;10.88;;
21458;SDS011;10891;49.350;19.386;2023-10-13T01:36:19;14.10;;;10.30;;
21458;SDS011;10891;49.350;19.386;2023-10-13T01:38:46;19.17;;;10.32;;
21458;SDS011;10891;49.350;19.386;2023-10-13T01:41:15;20.33;;;10.32;;
21458;SDS011;10891;49.350;19.386;2023-10-13T01:43:41;19.25;;;9.52;;
21458;SDS011;10891;49.350;19.386;2023-10-13T01:46:09;17.95;;;10.00;;
21458;SDS011;10891;49.350;19.386;2023-10-13T01:48:35;20.13;;;9.55;;
21458;SDS011;10891;49.350;19.386;2023-10-13T01:51:07;18.13;;;8.70;;
21458;SDS011;10891;49.350;19.386;2023-10-13T01:53:35;12.75;;;7.80;;
21458;SDS011;10891;49.350;19.386;2023-10-13T01:56:04;15.73;;;7.68;;
21458;SDS011;10891;49.350;19.386;2023-10-13T01:58:35;17.95;;;6.85;;
21458;SDS011;10891;49.350;19.386;2023-10-13T02:01:03;15.52;;;7.38;;
21458;SDS011;10891;49.350;19.386;2023-10-13T02:03:32;13.45;;;7.15;;
21458;SDS011;10891;49.350;19.386;2023-10-13T02:06:06;17.90;;;7.30;;
21458;SDS011;10891;49.350;19.386;2023-10-13T02:08:35;16.25;;;8.48;;
21458;SDS011;10891;49.350;19.386;2023-10-13T02:11:09;18.80;;;7.53;;
21458;SDS011;10891;49.350;19.386;2023-10-13T02:13:35;16.67;;;7.85;;
21458;SDS011;10891;49.350;19.386;2023-10-13T02:16:07;16.38;;;7.97;;
21458;SDS011;10891;49.350;19.386;2023-10-13T02:18:37;17.83;;;8.18;;
21458;SDS011;10891;49.350;19.386;2023-10-13T02:21:08;13.07;;;8.15;;
21458;SDS011;10891;49.350;19.386;2023-10-13T02:23:39;15.32;;;8.82;;
21458;SDS011;10891;49.350;19.386;2023-10-13T02:26:11;19.75;;;8.88;;
21458;SDS011;10891;49.350;19.386;2023-10-13T02:28:40;17.27;;;11.65;;
21458;SDS011;10891;49.350;19.386;2023-10-13T02:31:06;13.95;;;8.88;;
21458;SDS011;10891;49.350;19.386;2023-10-13T02:33:34;15.10;;;7.97;;
21458;SDS011;10891;49.350;19.386;2023-10-13T02:36:09;16.98;;;9.07;;
21458;SDS011;10891;49.350;19.386;2023-10-13T02:38:37;19.05;;;8.10;;
21458;SDS011;10891;49.350;19.386;2023-10-13T02:41:12;12.30;;;8.10;;
21458;SDS011;10891;49.350;19.386;2023-10-13T02:43:45;17.73;;;8.43;;
21458;SDS011;10891;49.350;19.386;2023-10-13T02:46:11;16.98;;;7.93;;
21458;SDS011;10891;49.350;19.386;2023-10-13T02:48:41;14.88;;;8.43;;
21458;SDS011;10891;49.350;19.386;2023-10-13T02:51:11;17.35;;;9.43;;
21458;SDS011;10891;49.350;19.386;2023-10-13T02:53:41;14.27;;;8.18;;
21458;SDS011;10891;49.350;19.386;2023-10-13T02:56:13;13.32;;;7.97;;
21458;SDS011;10891;49.350;19.386;2023-10-13T02:58:39;15.40;;;7.95;;
21458;SDS011;10891;49.350;19.386;2023-10-13T03:01:10;13.88;;;8.35;;
21458;SDS011;10891;49.350;19.386;2023-10-13T03:03:44;14.90;;;7.72;;
21458;SDS011;10891;49.350;19.386;2023-10-13T03:06:15;18.88;;;8.35;;
21458;SDS011;10891;49.350;19.386;2023-10-13T03:08:41;14.20;;;6.80;;
21458;SDS011;10891;49.350;19.386;2023-10-13T03:11:09;12.23;;;7.03;;
21458;SDS011;10891;49.350;19.386;2023-10-13T03:13:37;11.88;;;7.03;;
21458;SDS011;10891;49.350;19.386;2023-10-13T03:16:12;12.73;;;6.25;;
21458;SDS011;10891;49.350;19.386;2023-10-13T03:18:41;9.15;;;6.00;;
21458;SDS011;10891;49.350;19.386;2023-10-13T03:21:16;11.63;;;5.65;;
21458;SDS011;10891;49.350;19.386;2023-10-13T03:23:53;8.93;;;5.47;;
21458;SDS011;10891;49.350;19.386;2023-10-13T03:26:20;11.40;;;6.88;;
21458;SDS011;10891;49.350;19.386;2023-10-13T03:28:49;9.85;;;6.25;;
21458;SDS011;10891;49.350;19.386;2023-10-13T03:31:18;10.50;;;6.50;;
21458;SDS011;10891;49.350;19.386;2023-10-13T03:33:52;11.68;;;6.80;;
21458;SDS011;10891;49.350;19.386;2023-10-13T03:36:24;10.75;;;6.13;;
21458;SDS011;10891;49.350;19.386;2023-10-13T03:39:21;13.60;;;7.22;;
21458;SDS011;10891;49.350;19.386;2023-10-13T03:41:54;13.18;;;6.43;;
21458;SDS011;10891;49.350;19.386;2023-10-13T03:44:22;17.30;;;7.00;;
21458;SDS011;10891;49.350;19.386;2023-10-13T03:46:55;13.95;;;7.07;;
21458;SDS011;10891;49.350;19.386;2023-10-13T03:49:22;11.82;;;6.35;;
21458;SDS011;10891;49.350;19.386;2023-10-13T03:51:50;15.00;;;7.40;;
21458;SDS011;10891;49.350;19.386;2023-10-13T03:54:20;13.85;;;6.93;;
21458;SDS011;10891;49.350;19.386;2023-10-13T03:56:47;14.38;;;6.90;;
21458;SDS011;10891;49.350;19.386;2023-10-13T03:59:17;16.33;;;6.97;;
21458;SDS011;10891;49.350;19.386;2023-10-13T04:01:46;14.88;;;7.18;;
21458;SDS011;10891;49.350;19.386;2023-10-13T04:04:23;14.57;;;7.40;;
21458;SDS011;10891;49.350;19.386;2023-10-13T04:07:12;15.48;;;7.45;;
21458;SDS011;10891;49.350;19.386;2023-10-13T04:10:00;16.48;;;7.68;;
21458;SDS011;10891;49.350;19.386;2023-10-13T04:13:09;16.50;;;7.93;;
21458;SDS011;10891;49.350;19.386;2023-10-13T04:15:50;11.70;;;6.88;;
21458;SDS011;10891;49.350;19.386;2023-10-13T04:19:00;12.77;;;6.32;;
21458;SDS011;10891;49.350;19.386;2023-10-13T04:21:45;11.02;;;6.53;;
21458;SDS011;10891;49.350;19.386;2023-10-13T04:24:23;16.35;;;8.02;;
21458;SDS011;10891;49.350;19.386;2023-10-13T04:27:04;13.88;;;7.18;;
21458;SDS011;10891;49.350;19.386;2023-10-13T04:29:54;14.05;;;6.97;;
21458;SDS011;10891;49.350;19.386;2023-10-13T04:32:35;11.68;;;6.82;;
21458;SDS011;10891;49.350;19.386;2023-10-13T04:35:05;16.17;;;8.07;;
21458;SDS011;10891;49.350;19.386;2023-10-13T04:37:42;10.90;;;6.97;;
21458;SDS011;10891;49.350;19.386;2023-10-13T04:40:17;12.40;;;6.80;;
21458;SDS011;10891;49.350;19.386;2023-10-13T04:42:49;13.27;;;7.28;;
21458;SDS011;10891;49.350;19.386;2023-10-13T04:45:20;10.38;;;6.97;;
21458;SDS011;10891;49.350;19.386;2023-10-13T04:48:04;11.88;;;6.95;;
21458;SDS011;10891;49.350;19.386;2023-10-13T04:50:45;11.85;;;7.03;;
21458;SDS011;10891;49.350;19.386;2023-10-13T04:53:16;14.18;;;7.50;;
21458;SDS011;10891;49.350;19.386;2023-10-13T04:55:58;11.82;;;6.78;;
21458;SDS011;10891;49.350;19.386;2023-10-13T04:58:33;14.48;;;8.00;;
21458;SDS011;10891;49.350;19.386;2023-10-13T05:01:26;15.13;;;9.02;;
21458;SDS011;10891;49.350;19.386;2023-10-13T05:04:36;14.45;;;8.57;;
21458;SDS011;10891;49.350;19.386;2023-10-13T05:07:26;17.25;;;8.55;;
21458;SDS011;10891;49.350;19.386;2023-10-13T05:10:12;13.05;;;7.35;;
21458;SDS011;10891;49.350;19.386;2023-10-13T05:12:57;17.33;;;7.72;;
21458;SDS011;10891;49.350;19.386;2023-10-13T05:15:46;12.23;;;8.05;;
21458;SDS011;10891;49.350;19.386;2023-10-13T05:18:32;17.13;;;7.90;;
21458;SDS011;10891;49.350;19.386;2023-10-13T05:21:17;13.43;;;8.88;;
21458;SDS011;10891;49.350;19.386;2023-10-13T05:24:04;15.05;;;8.30;;
21458;SDS011;10891;49.350;19.386;2023-10-13T05:26:49;11.13;;;7.60;;
21458;SDS011;10891;49.350;19.386;2023-10-13T05:29:34;14.98;;;8.52;;
21458;SDS011;10891;49.350;19.386;2023-10-13T05:32:19;18.58;;;11.90;;
21458;SDS011;10891;49.350;19.386;2023-10-13T05:35:04;16.05;;;10.52;;
21458;SDS011;10891;49.350;19.386;2023-10-13T05:37:49;58.35;;;39.30;;
21458;SDS011;10891;49.350;19.386;2023-10-13T05:40:53;21.88;;;14.30;;
21458;SDS011;10891;49.350;19.386;2023-10-13T05:43:37;15.98;;;8.57;;
21458;SDS011;10891;49.350;19.386;2023-10-13T05:46:22;23.55;;;13.30;;
21458;SDS011;10891;49.350;19.386;2023-10-13T05:49:14;39.67;;;26.48;;
21458;SDS011;10891;49.350;19.386;2023-10-13T05:52:05;13.18;;;8.23;;
21458;SDS011;10891;49.350;19.386;2023-10-13T05:54:44;16.17;;;8.60;;
21458;SDS011;10891;49.350;19.386;2023-10-13T05:57:30;17.92;;;8.02;;
21458;SDS011;10891;49.350;19.386;2023-10-13T06:00:15;17.40;;;8.73;;
21458;SDS011;10891;49.350;19.386;2023-10-13T06:03:00;11.80;;;6.72;;
21458;SDS011;10891;49.350;19.386;2023-10-13T06:05:45;15.63;;;8.73;;
21458;SDS011;10891;49.350;19.386;2023-10-13T06:08:29;13.30;;;7.97;;
21458;SDS011;10891;49.350;19.386;2023-10-13T06:11:14;12.75;;;7.18;;
21458;SDS011;10891;49.350;19.386;2023-10-13T06:14:00;16.83;;;8.77;;
21458;SDS011;10891;49.350;19.386;2023-10-13T06:16:45;13.30;;;7.78;;
21458;SDS011;10891;49.350;19.386;2023-10-13T06:19:33;10.70;;;5.95;;
21458;SDS011;10891;49.350;19.386;2023-10-13T06:22:17;15.02;;;7.78;;
21458;SDS011;10891;49.350;19.386;2023-10-13T06:25:02;12.90;;;7.10;;
21458;SDS011;10891;49.350;19.386;2023-10-13T06:27:47;13.60;;;7.20;;
21458;SDS011;10891;49.350;19.386;2023-10-13T06:30:34;12.88;;;6.28;;
21458;SDS011;10891;49.350;19.386;2023-10-13T06:33:01;14.20;;;7.05;;
21458;SDS011;10891;49.350;19.386;2023-10-13T06:35:29;11.68;;;6.43;;
21458;SDS011;10891;49.350;19.386;2023-10-13T06:37:56;11.07;;;7.03;;
21458;SDS011;10891;49.350;19.386;2023-10-13T06:40:25;16.02;;;8.90;;
21458;SDS011;10891;49.350;19.386;2023-10-13T06:42:58;13.60;;;8.70;;
21458;SDS011;10891;49.350;19.386;2023-10-13T06:45:39;13.77;;;9.07;;
21458;SDS011;10891;49.350;19.386;2023-10-13T06:48:06;12.48;;;7.47;;
21458;SDS011;10891;49.350;19.386;2023-10-13T06:50:36;12.18;;;7.50;;
21458;SDS011;10891;49.350;19.386;2023-10-13T06:53:06;11.38;;;7.55;;
21458;SDS011;10891;49.350;19.386;2023-10-13T06:55:37;13.55;;;6.35;;
21458;SDS011;10891;49.350;19.386;2023-10-13T06:58:05;11.32;;;6.40;;
21458;SDS011;10891;49.350;19.386;2023-10-13T07:00:40;13.65;;;6.57;;
21458;SDS011;10891;49.350;19.386;2023-10-13T07:03:17;15.40;;;6.13;;
21458;SDS011;10891;49.350;19.386;2023-10-13T07:05:45;9.65;;;5.72;;
21458;SDS011;10891;49.350;19.386;2023-10-13T07:08:14;17.00;;;9.15;;
21458;SDS011;10891;49.350;19.386;2023-10-13T07:10:47;25.42;;;11.05;;
21458;SDS011;10891;49.350;19.386;2023-10-13T07:13:16;14.63;;;7.85;;
21458;SDS011;10891;49.350;19.386;2023-10-13T07:15:46;11.32;;;6.38;;
21458;SDS011;10891;49.350;19.386;2023-10-13T07:18:13;13.20;;;5.05;;
21458;SDS011;10891;49.350;19.386;2023-10-13T07:20:42;14.20;;;6.65;;
21458;SDS011;10891;49.350;19.386;2023-10-13T07:23:10;11.95;;;5.53;;
21458;SDS011;10891;49.350;19.386;2023-10-13T07:25:42;12.40;;;5.65;;
21458;SDS011;10891;49.350;19.386;2023-10-13T07:28:10;12.50;;;4.93;;
21458;SDS011;10891;49.350;19.386;2023-10-13T07:30:40;11.05;;;5.20;;
21458;SDS011;10891;49.350;19.386;2023-10-13T07:33:16;13.45;;;5.57;;
21458;SDS011;10891;49.350;19.386;2023-10-13T07:35:45;12.57;;;5.47;;
21458;SDS011;10891;49.350;19.386;2023-10-13T07:38:15;9.75;;;4.85;;
21458;SDS011;10891;49.350;19.386;2023-10-13T07:40:42;8.52;;;5.18;;
21458;SDS011;10891;49.350;19.386;2023-10-13T07:43:16;12.10;;;6.10;;
21458;SDS011;10891;49.350;19.386;2023-10-13T07:45:46;13.18;;;5.43;;
21458;SDS011;10891;49.350;19.386;2023-10-13T07:48:24;12.55;;;5.65;;
21458;SDS011;10891;49.350;19.386;2023-10-13T07:50:58;14.50;;;4.63;;
21458;SDS011;10891;49.350;19.386;2023-10-13T07:53:26;9.40;;;5.20;;
21458;SDS011;10891;49.350;19.386;2023-10-13T07:55:59;12.60;;;5.80;;
21458;SDS011;10891;49.350;19.386;2023-10-13T07:58:30;10.82;;;5.65;;
21458;SDS011;10891;49.350;19.386;2023-10-13T08:00:58;11.77;;;5.35;;
21458;SDS011;10891;49.350;19.386;2023-10-13T08:03:34;10.88;;;4.30;;
21458;SDS011;10891;49.350;19.386;2023-10-13T08:06:08;10.00;;;4.50;;
21458;SDS011;10891;49.350;19.386;2023-10-13T08:08:46;9.57;;;4.55;;
21458;SDS011;10891;49.350;19.386;2023-10-13T08:11:18;8.50;;;4.82;;
21458;SDS011;10891;49.350;19.386;2023-10-13T08:13:56;10.00;;;5.05;;
21458;SDS011;10891;49.350;19.386;2023-10-13T08:16:25;11.23;;;5.35;;
21458;SDS011;10891;49.350;19.386;2023-10-13T08:19:11;11.05;;;5.28;;
21458;SDS011;10891;49.350;19.386;2023-10-13T08:21:41;13.73;;;5.75;;
21458;SDS011;10891;49.350;19.386;2023-10-13T08:24:14;12.75;;;5.35;;
21458;SDS011;10891;49.350;19.386;2023-10-13T08:26:50;13.73;;;5.60;;
21458;SDS011;10891;49.350;19.386;2023-10-13T08:29:23;10.27;;;5.35;;
21458;SDS011;10891;49.350;19.386;2023-10-13T08:32:08;11.35;;;5.35;;
21458;SDS011;10891;49.350;19.386;2023-10-13T08:34:49;19.73;;;7.75;;
21458;SDS011;10891;49.350;19.386;2023-10-13T08:37:35;13.07;;;5.97;;
21458;SDS011;10891;49.350;19.386;2023-10-13T08:40:22;12.73;;;6.30;;
21458;SDS011;10891;49.350;19.386;2023-10-13T08:43:03;12.23;;;6.78;;
21458;SDS011;10891;49.350;19.386;2023-10-13T08:45:37;13.32;;;6.80;;
21458;SDS011;10891;49.350;19.386;2023-10-13T08:48:19;19.05;;;8.25;;
21458;SDS011;10891;49.350;19.386;2023-10-13T08:50:52;15.15;;;7.03;;
21458;SDS011;10891;49.350;19.386;2023-10-13T08:53:21;12.00;;;6.00;;
21458;SDS011;10891;49.350;19.386;2023-10-13T08:55:58;11.77;;;5.82;;
21458;SDS011;10891;49.350;19.386;2023-10-13T08:58:40;11.55;;;5.57;;
21458;SDS011;10891;49.350;19.386;2023-10-13T09:01:31;15.80;;;5.80;;
21458;SDS011;10891;49.350;19.386;2023-10-13T09:04:03;13.80;;;6.10;;
21458;SDS011;10891;49.350;19.386;2023-10-13T09:06:48;15.60;;;5.82;;
21458;SDS011;10891;49.350;19.386;2023-10-13T09:09:28;11.20;;;4.93;;
21458;SDS011;10891;49.350;19.386;2023-10-13T09:12:00;11.85;;;5.55;;
21458;SDS011;10891;49.350;19.386;2023-10-13T09:14:34;10.82;;;5.18;;
21458;SDS011;10891;49.350;19.386;2023-10-13T09:17:03;15.85;;;4.90;;
21458;SDS011;10891;49.350;19.386;2023-10-13T09:19:47;12.95;;;5.75;;
21458;SDS011;10891;49.350;19.386;2023-10-13T09:22:21;12.15;;;5.82;;
21458;SDS011;10891;49.350;19.386;2023-10-13T09:24:56;13.90;;;5.50;;
21458;SDS011;10891;49.350;19.386;2023-10-13T09:27:24;11.80;;;5.90;;
21458;SDS011;10891;49.350;19.386;2023-10-13T09:29:55;11.70;;;5.03;;
21458;SDS011;10891;49.350;19.386;2023-10-13T09:32:22;13.35;;;5.05;;
21458;SDS011;10891;49.350;19.386;2023-10-13T09:34:49;12.35;;;5.53;;
21458;SDS011;10891;49.350;19.386;2023-10-13T09:37:16;12.82;;;5.60;;
21458;SDS011;10891;49.350;19.386;2023-10-13T09:39:48;9.90;;;5.35;;
21458;SDS011;10891;49.350;19.386;2023-10-13T09:42:18;11.32;;;4.70;;
21458;SDS011;10891;49.350;19.386;2023-10-13T09:44:48;11.90;;;4.93;;
21458;SDS011;10891;49.350;19.386;2023-10-13T09:47:21;9.73;;;4.57;;
21458;SDS011;10891;49.350;19.386;2023-10-13T09:49:58;10.55;;;4.78;;
21458;SDS011;10891;49.350;19.386;2023-10-13T09:52:30;11.40;;;4.72;;
21458;SDS011;10891;49.350;19.386;2023-10-13T09:55:11;9.82;;;4.82;;
21458;SDS011;10891;49.350;19.386;2023-10-13T09:57:41;8.48;;;3.90;;
21458;SDS011;10891;49.350;19.386;2023-10-13T10:00:15;9.00;;;4.15;;
21458;SDS011;10891;49.350;19.386;2023-10-13T10:03:00;9.10;;;4.68;;
21458;SDS011;10891;49.350;19.386;2023-10-13T10:05:40;11.02;;;5.05;;
21458;SDS011;10891;49.350;19.386;2023-10-13T10:08:06;7.85;;;3.72;;
21458;SDS011;10891;49.350;19.386;2023-10-13T10:10:47;11.48;;;4.40;;
21458;SDS011;10891;49.350;19.386;2023-10-13T10:13:15;8.93;;;4.50;;
21458;SDS011;10891;49.350;19.386;2023-10-13T10:15:48;17.40;;;7.07;;
21458;SDS011;10891;49.350;19.386;2023-10-13T10:18:18;10.50;;;5.03;;
21458;SDS011;10891;49.350;19.386;2023-10-13T10:20:47;26.55;;;6.18;;
21458;SDS011;10891;49.350;19.386;2023-10-13T10:23:23;13.75;;;4.43;;
21458;SDS011;10891;49.350;19.386;2023-10-13T10:25:53;7.63;;;4.38;;
21458;SDS011;10891;49.350;19.386;2023-10-13T10:28:36;14.82;;;5.47;;
21458;SDS011;10891;49.350;19.386;2023-10-13T10:31:04;10.13;;;5.45;;
21458;SDS011;10891;49.350;19.386;2023-10-13T10:33:34;12.55;;;5.00;;
21458;SDS011;10891;49.350;19.386;2023-10-13T10:36:02;10.75;;;4.95;;
21458;SDS011;10891;49.350;19.386;2023-10-13T10:38:30;11.10;;;5.13;;
21458;SDS011;10891;49.350;19.386;2023-10-13T10:41:01;12.27;;;5.13;;
21458;SDS011;10891;49.350;19.386;2023-10-13T10:43:30;14.27;;;4.55;;
21458;SDS011;10891;49.350;19.386;2023-10-13T10:46:07;10.90;;;4.88;;
21458;SDS011;10891;49.350;19.386;2023-10-13T10:48:36;13.65;;;5.10;;
21458;SDS011;10891;49.350;19.386;2023-10-13T10:51:08;15.32;;;5.60;;
21458;SDS011;10891;49.350;19.386;2023-10-13T10:53:46;9.13;;;4.72;;
21458;SDS011;10891;49.350;19.386;2023-10-13T10:56:16;12.68;;;5.00;;
21458;SDS011;10891;49.350;19.386;2023-10-13T10:58:50;8.48;;;4.32;;
21458;SDS011;10891;49.350;19.386;2023-10-13T11:01:20;10.77;;;4.57;;
21458;SDS011;10891;49.350;19.386;2023-10-13T11:03:54;15.75;;;5.43;;
21458;SDS011;10891;49.350;19.386;2023-10-13T11:06:23;10.50;;;4.15;;
21458;SDS011;10891;49.350;19.386;2023-10-13T11:09:00;10.65;;;4.53;;
21458;SDS011;10891;49.350;19.386;2023-10-13T11:11:30;10.82;;;4.45;;
21458;SDS011;10891;49.350;19.386;2023-10-13T11:14:00;11.57;;;4.85;;
21458;SDS011;10891;49.350;19.386;2023-10-13T11:16:46;17.27;;;4.95;;
21458;SDS011;10891;49.350;19.386;2023-10-13T11:19:16;8.10;;;4.78;;
21458;SDS011;10891;49.350;19.386;2023-10-13T11:21:50;8.65;;;4.57;;
21458;SDS011;10891;49.350;19.386;2023-10-13T11:24:18;12.25;;;5.45;;
21458;SDS011;10891;49.350;19.386;2023-10-13T11:26:48;9.18;;;4.40;;
21458;SDS011;10891;49.350;19.386;2023-10-13T11:29:19;13.70;;;4.93;;
21458;SDS011;10891;49.350;19.386;2023-10-13T11:31:59;13.00;;;5.20;;
21458;SDS011;10891;49.350;19.386;2023-10-13T11:34:28;14.23;;;5.75;;
21458;SDS011;10891;49.350;19.386;2023-10-13T11:37:04;10.48;;;5.20;;
21458;SDS011;10891;49.350;19.386;2023-10-13T11:39:53;16.20;;;4.80;;
21458;SDS011;10891;49.350;19.386;2023-10-13T11:42:22;11.65;;;4.60;;
21458;SDS011;10891;49.350;19.386;2023-10-13T11:44:52;9.02;;;4.13;;
21458;SDS011;10891;49.350;19.386;2023-10-13T11:47:39;9.38;;;4.00;;
21458;SDS011;10891;49.350;19.386;2023-10-13T11:50:13;10.93;;;5.07;;
21458;SDS011;10891;49.350;19.386;2023-10-13T11:52:51;9.15;;;5.32;;
21458;SDS011;10891;49.350;19.386;2023-10-13T11:55:19;10.10;;;4.75;;
21458;SDS011;10891;49.350;19.386;2023-10-13T11:57:47;12.15;;;5.53;;
21458;SDS011;10891;49.350;19.386;2023-10-13T12:00:15;9.35;;;4.57;;
21458;SDS011;10891;49.350;19.386;2023-10-13T12:02:51;15.65;;;4.90;;
21458;SDS011;10891;49.350;19.386;2023-10-13T12:05:36;7.97;;;4.40;;
21458;SDS011;10891;49.350;19.386;2023-10-13T12:08:31;11.07;;;4.35;;
21458;SDS011;10891;49.350;19.386;2023-10-13T12:11:03;7.65;;;4.07;;
21458;SDS011;10891;49.350;19.386;2023-10-13T12:13:46;14.93;;;5.22;;
21458;SDS011;10891;49.350;19.386;2023-10-13T12:16:13;8.85;;;4.53;;
21458;SDS011;10891;49.350;19.386;2023-10-13T12:18:44;11.65;;;4.15;;
21458;SDS011;10891;49.350;19.386;2023-10-13T12:21:18;12.32;;;4.60;;
21458;SDS011;10891;49.350;19.386;2023-10-13T12:23:46;16.60;;;5.18;;
21458;SDS011;10891;49.350;19.386;2023-10-13T12:26:16;10.85;;;4.80;;
21458;SDS011;10891;49.350;19.386;2023-10-13T12:28:46;17.25;;;5.50;;
21458;SDS011;10891;49.350;19.386;2023-10-13T12:31:18;21.40;;;5.97;;
21458;SDS011;10891;49.350;19.386;2023-10-13T12:33:52;16.10;;;5.32;;
21458;SDS011;10891;49.350;19.386;2023-10-13T12:36:22;13.65;;;5.05;;
21458;SDS011;10891;49.350;19.386;2023-10-13T12:38:56;12.05;;;5.20;;
21458;SDS011;10891;49.350;19.386;2023-10-13T12:41:41;10.95;;;5.22;;
21458;SDS011;10891;49.350;19.386;2023-10-13T12:44:27;13.38;;;6.07;;
21458;SDS011;10891;49.350;19.386;2023-10-13T12:47:12;11.57;;;5.78;;
21458;SDS011;10891;49.350;19.386;2023-10-13T12:49:57;10.57;;;6.05;;
21458;SDS011;10891;49.350;19.386;2023-10-13T12:52:30;12.93;;;4.90;;
21458;SDS011;10891;49.350;19.386;2023-10-13T12:54:58;15.27;;;5.32;;
21458;SDS011;10891;49.350;19.386;2023-10-13T12:57:31;8.98;;;4.63;;
21458;SDS011;10891;49.350;19.386;2023-10-13T13:00:00;13.98;;;4.95;;
21458;SDS011;10891;49.350;19.386;2023-10-13T13:02:41;12.32;;;4.68;;
21458;SDS011;10891;49.350;19.386;2023-10-13T13:05:09;13.48;;;4.88;;
21458;SDS011;10891;49.350;19.386;2023-10-13T13:07:38;12.30;;;4.40;;
21458;SDS011;10891;49.350;19.386;2023-10-13T13:10:12;8.48;;;4.30;;
21458;SDS011;10891;49.350;19.386;2023-10-13T13:12:39;9.27;;;4.65;;
21458;SDS011;10891;49.350;19.386;2023-10-13T13:15:08;12.60;;;4.63;;
21458;SDS011;10891;49.350;19.386;2023-10-13T13:17:37;10.48;;;5.43;;
21458;SDS011;10891;49.350;19.386;2023-10-13T13:20:05;15.15;;;6.05;;
21458;SDS011;10891;49.350;19.386;2023-10-13T13:22:37;11.27;;;5.00;;
21458;SDS011;10891;49.350;19.386;2023-10-13T13:25:05;9.27;;;4.80;;
21458;SDS011;10891;49.350;19.386;2023-10-13T13:27:36;9.10;;;4.90;;
21458;SDS011;10891;49.350;19.386;2023-10-13T13:30:09;14.43;;;6.32;;
21458;SDS011;10891;49.350;19.386;2023-10-13T13:32:38;14.65;;;6.50;;
21458;SDS011;10891;49.350;19.386;2023-10-13T13:35:06;16.05;;;6.13;;
21458;SDS011;10891;49.350;19.386;2023-10-13T13:37:38;14.10;;;5.88;;
21458;SDS011;10891;49.350;19.386;2023-10-13T13:40:08;11.63;;;5.53;;
21458;SDS011;10891;49.350;19.386;2023-10-13T13:42:46;11.07;;;4.93;;
21458;SDS011;10891;49.350;19.386;2023-10-13T13:45:15;10.82;;;5.53;;
21458;SDS011;10891;49.350;19.386;2023-10-13T13:47:52;12.20;;;5.90;;
21458;SDS011;10891;49.350;19.386;2023-10-13T13:50:20;19.58;;;6.38;;
21458;SDS011;10891;49.350;19.386;2023-10-13T13:52:52;14.90;;;6.03;;
21458;SDS011;10891;49.350;19.386;2023-10-13T13:55:21;13.45;;;6.13;;
21458;SDS011;10891;49.350;19.386;2023-10-13T13:57:48;12.60;;;5.03;;
21458;SDS011;10891;49.350;19.386;2023-10-13T14:00:18;18.55;;;5.95;;
21458;SDS011;10891;49.350;19.386;2023-10-13T14:03:02;11.10;;;4.53;;
21458;SDS011;10891;49.350;19.386;2023-10-13T14:05:29;12.35;;;5.32;;
21458;SDS011;10891;49.350;19.386;2023-10-13T14:07:56;11.05;;;5.07;;
21458;SDS011;10891;49.350;19.386;2023-10-13T14:10:24;9.00;;;4.32;;
21458;SDS011;10891;49.350;19.386;2023-10-13T14:13:20;8.93;;;4.47;;
21458;SDS011;10891;49.350;19.386;2023-10-13T14:15:51;15.48;;;7.28;;
21458;SDS011;10891;49.350;19.386;2023-10-13T14:18:21;14.52;;;6.13;;
21458;SDS011;10891;49.350;19.386;2023-10-13T14:20:55;17.90;;;5.70;;
21458;SDS011;10891;49.350;19.386;2023-10-13T14:23:29;17.83;;;5.85;;
21458;SDS011;10891;49.350;19.386;2023-10-13T14:25:56;12.38;;;5.90;;
21458;SDS011;10891;49.350;19.386;2023-10-13T14:28:23;14.50;;;6.57;;
21458;SDS011;10891;49.350;19.386;2023-10-13T14:31:03;11.75;;;6.32;;
21458;SDS011;10891;49.350;19.386;2023-10-13T14:33:35;11.13;;;5.95;;
21458;SDS011;10891;49.350;19.386;2023-10-13T14:36:04;23.08;;;8.68;;
21458;SDS011;10891;49.350;19.386;2023-10-13T14:38:31;19.15;;;10.27;;
21458;SDS011;10891;49.350;19.386;2023-10-13T14:40:59;12.60;;;8.77;;
21458;SDS011;10891;49.350;19.386;2023-10-13T14:43:26;12.77;;;7.60;;
21458;SDS011;10891;49.350;19.386;2023-10-13T14:45:53;13.05;;;5.93;;
21458;SDS011;10891;49.350;19.386;2023-10-13T14:48:22;13.90;;;6.13;;
21458;SDS011;10891;49.350;19.386;2023-10-13T14:50:53;18.48;;;6.47;;
21458;SDS011;10891;49.350;19.386;2023-10-13T14:53:21;14.77;;;6.25;;
21458;SDS011;10891;49.350;19.386;2023-10-13T14:55:48;13.20;;;6.30;;
21458;SDS011;10891;49.350;19.386;2023-10-13T14:58:16;10.48;;;6.15;;
21458;SDS011;10891;49.350;19.386;2023-10-13T15:00:43;13.57;;;5.80;;